sensor_id;sensor_type;location;lat;lon;timestamp;P1;durP1;ratioP1;P2;durP2;ratioP2
46633;SDS011;32362;49.986;8.026;2022-07-21T00:01:57;13.52;;;10.75;;
46633;SDS011;32362;49.986;8.026;2022-07-21T00:28:38;18.60;;;13.17;;
46633;SDS011;32362;49.986;8.026;2022-07-21T00:55:19;18.10;;;12.70;;
46633;SDS011;32362;49.986;8.026;2022-07-21T01:22:02;12.32;;;8.77;;
46633;SDS011;32362;49.986;8.026;2022-07-21T01:48:44;5.97;;;3.88;;
46633;SDS011;32362;49.986;8.026;2022-07-21T02:15:25;8.57;;;4.28;;
46633;SDS011;32362;49.986;8.026;2022-07-21T02:42:06;5.63;;;2.93;;
46633;SDS011;32362;49.986;8.026;2022-07-21T03:08:46;6.65;;;4.15;;
46633;SDS011;32362;49.986;8.026;2022-07-21T03:35:27;7.20;;;5.00;;
46633;SDS011;32362;49.986;8.026;2022-07-21T04:02:08;8.50;;;5.22;;
46633;SDS011;32362;49.986;8.026;2022-07-21T04:28:48;7.15;;;4.57;;
46633;SDS011;32362;49.986;8.026;2022-07-21T04:55:29;7.32;;;5.18;;
46633;SDS011;32362;49.986;8.026;2022-07-21T05:22:10;7.40;;;4.50;;
46633;SDS011;32362;49.986;8.026;2022-07-21T05:48:53;6.32;;;5.57;;
46633;SDS011;32362;49.986;8.026;2022-07-21T06:15:34;7.50;;;5.00;;
46633;SDS011;32362;49.986;8.026;2022-07-21T06:42:15;5.03;;;4.00;;
46633;SDS011;32362;49.986;8.026;2022-07-21T07:08:56;6.97;;;3.67;;
46633;SDS011;32362;49.986;8.026;2022-07-21T07:35:36;3.93;;;3.30;;
46633;SDS011;32362;49.986;8.026;2022-07-21T08:02:17;6.73;;;4.47;;
46633;SDS011;32362;49.986;8.026;2022-07-21T08:28:58;4.00;;;2.57;;
46633;SDS011;32362;49.986;8.026;2022-07-21T08:55:38;3.07;;;2.50;;
46633;SDS011;32362;49.986;8.026;2022-07-21T09:22:22;3.72;;;2.50;;
46633;SDS011;32362;49.986;8.026;2022-07-21T09:49:03;2.80;;;2.20;;
46633;SDS011;32362;49.986;8.026;2022-07-21T10:15:45;2.67;;;2.40;;
46633;SDS011;32362;49.986;8.026;2022-07-21T10:42:26;2.22;;;1.77;;
46633;SDS011;32362;49.986;8.026;2022-07-21T11:35:53;3.38;;;2.63;;
46633;SDS011;32362;49.986;8.026;2022-07-21T12:02:33;3.33;;;2.43;;
46633;SDS011;32362;49.986;8.026;2022-07-21T12:29:27;3.70;;;2.53;;
46633;SDS011;32362;49.986;8.026;2022-07-21T12:56:08;2.85;;;2.00;;
46633;SDS011;32362;49.986;8.026;2022-07-21T13:22:49;5.75;;;3.25;;
46633;SDS011;32362;49.986;8.026;2022-07-21T14:16:11;4.97;;;2.58;;
46633;SDS011;32362;49.986;8.026;2022-07-21T14:42:52;8.85;;;3.08;;
46633;SDS011;32362;49.986;8.026;2022-07-21T15:09:33;3.95;;;2.97;;
46633;SDS011;32362;49.986;8.026;2022-07-21T15:36:14;3.38;;;2.50;;
46633;SDS011;32362;49.986;8.026;2022-07-21T16:02:55;5.88;;;3.50;;
46633;SDS011;32362;49.986;8.026;2022-07-21T16:29:36;5.85;;;3.40;;
46633;SDS011;32362;49.986;8.026;2022-07-21T16:56:17;6.27;;;3.50;;
46633;SDS011;32362;49.986;8.026;2022-07-21T17:22:57;10.53;;;4.00;;
46633;SDS011;32362;49.986;8.026;2022-07-21T17:49:38;5.43;;;3.92;;
46633;SDS011;32362;49.986;8.026;2022-07-21T18:16:19;5.75;;;3.83;;
46633;SDS011;32362;49.986;8.026;2022-07-21T18:43:00;7.68;;;4.90;;
46633;SDS011;32362;49.986;8.026;2022-07-21T19:09:42;8.75;;;4.93;;
46633;SDS011;32362;49.986;8.026;2022-07-21T19:36:23;9.37;;;5.40;;
46633;SDS011;32362;49.986;8.026;2022-07-21T20:03:04;6.88;;;5.07;;
46633;SDS011;32362;49.986;8.026;2022-07-21T20:29:45;3.50;;;3.03;;
46633;SDS011;32362;49.986;8.026;2022-07-21T20:56:26;4.77;;;3.40;;
46633;SDS011;32362;49.986;8.026;2022-07-21T21:23:06;4.90;;;3.15;;
46633;SDS011;32362;49.986;8.026;2022-07-21T21:49:47;4.32;;;3.42;;
46633;SDS011;32362;49.986;8.026;2022-07-21T22:16:28;6.77;;;4.10;;
46633;SDS011;32362;49.986;8.026;2022-07-21T22:43:08;8.10;;;4.82;;
46633;SDS011;32362;49.986;8.026;2022-07-21T23:09:49;7.87;;;4.90;;
46633;SDS011;32362;49.986;8.026;2022-07-21T23:36:30;7.13;;;5.43;;
